Big Valley, Canada
Current Conditions -  °F | °C
As of 11:32 AM on Friday 28 Nov 2014 (Local Time) from CYQF Reporting Station
Moderate Snow Moderate Snow  
Wind Chill: -32°   Ceiling: 1000
Heat Index: -8°   Visibility: 0.5mi
Dew Point: -13°   Wind: 20mph
Humidity: 77%   Direction: 340°NNW
Pressure: 29.74"   Gusts: NA
Location:  52.03°N, 112.75°W
Report Text: CYQF 281832Z 34017KT 1/2SM SN DRSN VV010 M22/M25 A2974 RMK SN8 OCNL BLSN PRESFR SLP153
Loading
Personal Weather Stations






























Interactive Weather Map New forecast layout! Learn more

10-Day Weather Forecast

Advertisements
Track Severe Weather on mobile